M I D A S
Marine Information and Data Acquisition System
Tripno 1871 of the Zeeleeuw from 2010-04-29 06:50:12 to 2010-04-29 15:24:54
Back to CruiseResearch ActivitiesStationsMapUnderway DataData graphs

EquipmentUnitsComments
TimeDGPSUTC
LatitudeDGPSDM.mWGS84
LongitudeDGPSDM.mWGS84
SpeedMeteo Stationm/sRelative wind speed
DirectionMeteo StationdegRelative wind direction
TemperatureMeteo Stationdeg CelciusAir temperature
PressureMeteo StationPaAtmospheric pressure
HumidityMeteo Station%Relative humidity
Missing or incorrect values are displayed as -999
Metereological data collected by the RV Zeeleeuw from 2010-04-29 06:37:43 to 2010-04-29 15:27:23
                                                                                    Next 1000 lines
Time Latitude Longitude Speed Direction Temperature Pressure Humidity
2010-04-29 06:37:52 51°13.663 2°55.954 2.4 353 15 101300 38
2010-04-29 06:37:57 51°13.664 2°55.951 1.5 17 15 101300 38
2010-04-29 06:38:02 51°13.665 2°55.947 1.4 11 15.1 101300 38
2010-04-29 06:38:07 51°13.667 2°55.942 0.2 23 15.1 101300 38
2010-04-29 06:38:13 51°13.669 2°55.935 0.3 33 15 101300 36
2010-04-29 06:38:19 51°13.671 2°55.929 1.9 23 15 101300 36
2010-04-29 06:38:24 51°13.673 2°55.923 1.8 29 15.1 101300 38
2010-04-29 06:38:30 51°13.675 2°55.915 2.1 24 15.1 101300 38
2010-04-29 06:38:34 51°13.677 2°55.91 1.6 22 15.1 101300 37
2010-04-29 06:38:39 51°13.679 2°55.904 3.6 32 15.1 101300 37
2010-04-29 06:38:44 51°13.68 2°55.897 3.3 23 15.1 101300 38
2010-04-29 06:38:49 51°13.682 2°55.891 2.1 32 15.1 101300 38
2010-04-29 06:38:54 51°13.684 2°55.884 0.2 78 15.1 101300 37
2010-04-29 06:38:59 51°13.685 2°55.877 2 29 15.1 101300 37
2010-04-29 06:39:04 51°13.686 2°55.869 1.2 29 15.1 101300 38
2010-04-29 06:39:09 51°13.687 2°55.861 0.1 31 15.1 101300 38
2010-04-29 06:39:14 51°13.689 2°55.853 0.1 26 15.1 101300 36
2010-04-29 06:39:19 51°13.69 2°55.846 0.1 36 15.1 101300 36
2010-04-29 06:39:24 51°13.691 2°55.838 0.1 40 15.1 101300 37
2010-04-29 06:39:29 51°13.692 2°55.83 0.5 39 15.1 101300 37
2010-04-29 06:39:34 51°13.693 2°55.822 0.2 27 15.1 101300 37
2010-04-29 06:39:39 51°13.694 2°55.814 2.7 22 15.1 101300 37
2010-04-29 06:39:44 51°13.695 2°55.807 2.8 43 15.1 101300 36
2010-04-29 06:39:49 51°13.696 2°55.799 3.1 40 15.1 101300 36
2010-04-29 06:39:54 51°13.697 2°55.792 2.9 29 15.1 101300 37
2010-04-29 06:39:59 51°13.698 2°55.784 3.1 34 15.1 101300 37
2010-04-29 06:40:04 51°13.699 2°55.777 2.8 42 15.1 101300 38
2010-04-29 06:40:09 51°13.7 2°55.771 2.5 37 15.1 101300 38
2010-04-29 06:40:14 51°13.7 2°55.764 2.6 34 15.1 101300 36
2010-04-29 06:40:19 51°13.701 2°55.759 3.1 37 15.1 101300 36
2010-04-29 06:40:24 51°13.701 2°55.754 3.1 36 15.1 101300 38
2010-04-29 06:40:30 51°13.701 2°55.749 3.2 38 15.1 101300 38
2010-04-29 06:40:34 51°13.701 2°55.746 2.7 39 15.1 101300 38
2010-04-29 06:40:39 51°13.702 2°55.743 2.1 34 15.1 101300 38
2010-04-29 06:40:44 51°13.702 2°55.74 2.1 34 15.1 101300 38
2010-04-29 06:40:49 51°13.703 2°55.739 2.1 42 15.1 101300 38
2010-04-29 06:40:54 51°13.704 2°55.737 1.8 40 15.1 101300 38
2010-04-29 06:40:59 51°13.704 2°55.737 1.3 35 15.1 101300 38
2010-04-29 06:41:04 51°13.704 2°55.737 1.5 35 15.1 101300 37
2010-04-29 06:41:09 51°13.705 2°55.736 2 34 15.1 101300 37
2010-04-29 06:41:14 51°13.706 2°55.736 2 35 15.1 101300 37
2010-04-29 06:41:19 51°13.707 2°55.736 1.2 33 15.1 101300 37
2010-04-29 06:41:24 51°13.707 2°55.735 1.2 23 15.1 101300 37
2010-04-29 06:41:29 51°13.707 2°55.734 1.5 33 15.1 101300 37
2010-04-29 06:41:34 51°13.706 2°55.733 1.6 28 15.1 101300 38
2010-04-29 06:41:39 51°13.706 2°55.731 2.1 34 15.1 101300 38
2010-04-29 06:41:44 51°13.704 2°55.729 1.7 27 15.1 101300 36
2010-04-29 06:41:49 51°13.703 2°55.727 1.6 39 15.1 101300 36
2010-04-29 06:41:54 51°13.702 2°55.726 0.9 26 15.1 101300 36
2010-04-29 06:41:59 51°13.702 2°55.724 0.1 35 15.1 101300 36
2010-04-29 06:42:04 51°13.702 2°55.723 0.7 30 15.1 101300 37
2010-04-29 06:42:09 51°13.703 2°55.722 0.6 39 15.1 101300 37
2010-04-29 06:42:14 51°13.704 2°55.722 0.5 26 15.1 101300 37
2010-04-29 06:42:19 51°13.706 2°55.722 0.7 39 15.1 101300 37
2010-04-29 06:42:24 51°13.709 2°55.721 0.8 26 15.1 101300 39
2010-04-29 06:42:29 51°13.712 2°55.72 0.1 37 15.1 101300 39
2010-04-29 06:42:34 51°13.717 2°55.718 0.1 26 15.1 101300 38
2010-04-29 06:42:39 51°13.722 2°55.714 -999 252 15.1 101300 38
2010-04-29 06:42:44 51°13.729 2°55.71 -999 252 15.1 101300 37
2010-04-29 06:42:49 51°13.735 2°55.705 0.1 30 15.1 101300 37
2010-04-29 06:42:54 51°13.743 2°55.698 0.1 21 15.1 101300 37
2010-04-29 06:42:59 51°13.751 2°55.691 0.1 237 15.1 101300 37
2010-04-29 06:43:04 51°13.759 2°55.684 0.1 23 15.1 101300 38
2010-04-29 06:43:09 51°13.768 2°55.676 -999 242 15.1 101300 38
2010-04-29 06:43:14 51°13.777 2°55.668 -999 282 15.1 101300 37
2010-04-29 06:43:19 51°13.787 2°55.66 0.1 316 15.1 101300 37
2010-04-29 06:43:24 51°13.797 2°55.653 0.7 320 15.1 101300 37
2010-04-29 06:43:29 51°13.809 2°55.646 0.6 238 15.1 101300 37
2010-04-29 06:43:34 51°13.821 2°55.638 0.2 25 15.1 101300 37
2010-04-29 06:43:39 51°13.832 2°55.63 1.2 35 15.1 101300 37
2010-04-29 06:43:44 51°13.844 2°55.622 0.9 318 15.1 101300 38
2010-04-29 06:43:49 51°13.856 2°55.614 2.2 33 15.1 101300 38
2010-04-29 06:43:54 51°13.868 2°55.606 2.1 22 15.2 101300 37
2010-04-29 06:43:59 51°13.88 2°55.598 1.5 236 15.2 101300 37
2010-04-29 06:44:03 51°13.89 2°55.592 1.6 25 15.1 101300 38
2010-04-29 06:44:08 51°13.903 2°55.584 1.6 329 15.1 101300 38
2010-04-29 06:44:14 51°13.919 2°55.574 1.5 329 15.2 101290 38
2010-04-29 06:44:19 51°13.932 2°55.565 2.9 318 15.2 101290 38
2010-04-29 06:44:24 51°13.944 2°55.555 2.4 320 15.2 101290 38
2010-04-29 06:44:29 51°13.958 2°55.547 1.6 37 15.2 101290 38
2010-04-29 06:44:34 51°13.971 2°55.537 2.5 319 15.2 101290 37
2010-04-29 06:44:39 51°13.985 2°55.528 2.1 315 15.2 101290 37
2010-04-29 06:44:43 51°13.995 2°55.52 3.1 318 15.2 101290 36
2010-04-29 06:44:49 51°14.011 2°55.508 2.9 319 15.2 101290 36
2010-04-29 06:44:54 51°14.024 2°55.498 2.6 328 15.2 101290 37
2010-04-29 06:44:59 51°14.037 2°55.488 2.8 318 15.2 101290 37
2010-04-29 06:45:04 51°14.049 2°55.478 3 317 15.2 101290 36
2010-04-29 06:45:08 51°14.06 2°55.47 1.6 319 15.2 101290 36
2010-04-29 06:45:15 51°14.078 2°55.455 2.5 318 15.2 101290 37
2010-04-29 06:45:19 51°14.088 2°55.447 4 315 15.2 101290 37
2010-04-29 06:45:23 51°14.098 2°55.439 3.5 23 15.2 101290 37
2010-04-29 06:45:28 51°14.111 2°55.428 2.6 319 15.2 101290 37
2010-04-29 06:45:34 51°14.127 2°55.417 2.6 283 15.2 101290 38
2010-04-29 06:45:40 51°14.143 2°55.405 2.7 31 15.2 101290 38
2010-04-29 06:45:44 51°14.154 2°55.398 2.1 321 15.3 101290 36
2010-04-29 06:45:49 51°14.167 2°55.388 2 33 15.3 101290 36
2010-04-29 06:45:54 51°14.181 2°55.378 2.5 29 15.3 101290 36
2010-04-29 06:45:59 51°14.195 2°55.369 1.6 253 15.3 101290 36
2010-04-29 06:46:04 51°14.209 2°55.359 2.1 23 15.3 101290 36
2010-04-29 06:46:09 51°14.223 2°55.348 1.5 241 15.3 101290 36
2010-04-29 06:46:14 51°14.236 2°55.336 2.6 21 15.3 101280 36
2010-04-29 06:46:19 51°14.249 2°55.324 1.9 229 15.3 101280 36
2010-04-29 06:46:24 51°14.262 2°55.311 2.6 28 15.3 101290 38
2010-04-29 06:46:28 51°14.273 2°55.301 2.2 238 15.3 101290 38
2010-04-29 06:46:33 51°14.287 2°55.289 2.3 29 15.3 101290 36
2010-04-29 06:46:38 51°14.3 2°55.276 2.2 239 15.3 101290 36
2010-04-29 06:46:43 51°14.314 2°55.264 2.1 21 15.3 101290 36
2010-04-29 06:46:48 51°14.328 2°55.251 2.8 32 15.3 101290 36
2010-04-29 06:46:52 51°14.34 2°55.242 3.5 22 15.3 101280 36
2010-04-29 06:46:58 51°14.357 2°55.226 2.9 31 15.3 101280 36
2010-04-29 06:47:03 51°14.371 2°55.212 3 315 15.3 101280 38
2010-04-29 06:47:08 51°14.385 2°55.199 3.8 232 15.3 101280 38
2010-04-29 06:47:13 51°14.399 2°55.185 4 27 15.3 101280 36
2010-04-29 06:47:18 51°14.414 2°55.172 3.8 34 15.3 101280 36
2010-04-29 06:47:23 51°14.428 2°55.158 3.4 29 15.4 101280 36
2010-04-29 06:47:28 51°14.442 2°55.144 3.2 34 15.4 101280 36
2010-04-29 06:47:32 51°14.454 2°55.132 3.4 23 15.4 101270 38
2010-04-29 06:47:37 51°14.468 2°55.119 2.2 31 15.4 101270 38
2010-04-29 06:47:42 51°14.482 2°55.103 3.3 317 15.4 101260 36
2010-04-29 06:47:47 51°14.497 2°55.089 3.7 317 15.4 101260 36
2010-04-29 06:47:52 51°14.512 2°55.074 4.5 281 15.4 101280 37
2010-04-29 06:47:56 51°14.524 2°55.063 3.9 35 15.4 101280 37
2010-04-29 06:48:01 51°14.539 2°55.049 3.9 23 15.5 101280 36
2010-04-29 06:48:06 51°14.555 2°55.033 3.9 34 15.5 101280 36
2010-04-29 06:48:11 51°14.57 2°55.016 4.4 29 15.5 101280 37
2010-04-29 06:48:16 51°14.585 2°54.998 5.2 34 15.5 101280 37
2010-04-29 06:48:20 51°14.598 2°54.984 5.6 24 15.5 101280 37
2010-04-29 06:48:25 51°14.613 2°54.966 6.5 36 15.5 101280 37
2010-04-29 06:48:31 51°14.632 2°54.946 6.6 28 15.6 101280 36
2010-04-29 06:48:36 51°14.647 2°54.929 7.3 32 15.6 101280 36
2010-04-29 06:48:40 51°14.66 2°54.914 6.8 278 15.6 101280 36
2010-04-29 06:48:46 51°14.679 2°54.893 7.4 32 15.6 101280 36
2010-04-29 06:48:51 51°14.694 2°54.876 7 27 15.6 101280 36
2010-04-29 06:48:56 51°14.711 2°54.859 7.6 32 15.6 101280 36
2010-04-29 06:49:00 51°14.723 2°54.845 7.7 28 15.6 101280 36
2010-04-29 06:49:06 51°14.742 2°54.825 7.3 38 15.6 101280 36
2010-04-29 06:49:11 51°14.758 2°54.807 7.5 27 15.6 101280 37
2010-04-29 06:49:16 51°14.774 2°54.79 7.1 33 15.6 101280 37
2010-04-29 06:49:20 51°14.787 2°54.776 7.6 20 15.6 101290 36
2010-04-29 06:49:25 51°14.802 2°54.757 7.4 31 15.6 101290 36
2010-04-29 06:49:31 51°14.82 2°54.734 6.9 21 15.6 101280 37
2010-04-29 06:49:36 51°14.835 2°54.715 6.8 233 15.6 101280 37
2010-04-29 06:49:40 51°14.847 2°54.7 7.5 284 15.5 101280 37
2010-04-29 06:49:46 51°14.865 2°54.678 6.4 31 15.5 101290 36
2010-04-29 06:49:51 51°14.881 2°54.66 6.4 284 15.5 101290 36
2010-04-29 06:49:56 51°14.898 2°54.644 6.4 234 15.5 101290 36
2010-04-29 06:50:00 51°14.911 2°54.632 6 23 15.4 101280 38
2010-04-29 06:50:05 51°14.927 2°54.615 6.1 31 15.4 101280 38
2010-04-29 06:50:11 51°14.946 2°54.596 6.1 284 15.4 101290 36
2010-04-29 06:50:16 51°14.962 2°54.58 5.8 32 15.3 101290 37
2010-04-29 06:50:20 51°14.975 2°54.567 5.7 282 15.3 101290 37
2010-04-29 06:50:26 51°14.992 2°54.548 5.1 237 15.3 101290 37
2010-04-29 06:50:31 51°15.006 2°54.531 5.8 283 15.3 101290 37
2010-04-29 06:50:36 51°15.021 2°54.514 6 239 15.3 101290 37
2010-04-29 06:50:40 51°15.032 2°54.499 6 285 15.2 101290 37
2010-04-29 06:50:46 51°15.049 2°54.477 5.5 237 15.2 101290 37
2010-04-29 06:50:51 51°15.064 2°54.459 5.8 284 15.2 101290 37
2010-04-29 06:50:56 51°15.078 2°54.441 6.3 238 15.2 101290 37
2010-04-29 06:51:01 51°15.091 2°54.421 6.4 28 15.2 101290 38
2010-04-29 06:51:06 51°15.105 2°54.402 6.1 33 15.2 101290 38
2010-04-29 06:51:10 51°15.116 2°54.386 6.5 279 15.2 101290 39
2010-04-29 06:51:16 51°15.132 2°54.362 7.2 237 15.2 101290 39
2010-04-29 06:51:21 51°15.146 2°54.342 6.6 285 15.1 101280 38
2010-04-29 06:51:26 51°15.159 2°54.322 6.6 31 15.1 101280 38
2010-04-29 06:51:31 51°15.174 2°54.303 6.5 283 15.1 101280 38
2010-04-29 06:51:36 51°15.188 2°54.283 7.2 31 15.1 101280 38
2010-04-29 06:51:40 51°15.199 2°54.267 6.5 280 15.1 101290 37
2010-04-29 06:51:46 51°15.217 2°54.245 6.8 234 15 101280 38
2010-04-29 06:51:51 51°15.231 2°54.226 6.6 279 15 101280 38
2010-04-29 06:51:56 51°15.246 2°54.207 7.3 235 15 101290 38
2010-04-29 06:52:00 51°15.258 2°54.192 6.3 21 15 101290 38
2010-04-29 06:52:05 51°15.273 2°54.174 7 32 15 101290 38
2010-04-29 06:52:11 51°15.291 2°54.152 6.2 285 15 101290 38
2010-04-29 06:52:16 51°15.307 2°54.133 6.6 34 14.9 101290 37
2010-04-29 06:52:20 51°15.319 2°54.118 6.2 282 14.9 101290 37
2010-04-29 06:52:26 51°15.337 2°54.097 7 34 14.9 101290 37
2010-04-29 06:52:31 51°15.353 2°54.078 6.3 280 14.9 101290 38
2010-04-29 06:52:36 51°15.368 2°54.06 6.3 34 14.9 101290 38
2010-04-29 06:52:40 51°15.38 2°54.045 6.4 283 14.8 101290 38
2010-04-29 06:52:46 51°15.398 2°54.022 6.2 234 14.8 101290 38
2010-04-29 06:52:51 51°15.412 2°54.002 6.4 279 14.8 101290 38
2010-04-29 06:52:56 51°15.427 2°53.983 6 34 14.8 101290 39
2010-04-29 06:53:01 51°15.442 2°53.963 6.2 26 14.8 101290 39
2010-04-29 06:53:06 51°15.457 2°53.945 5.9 233 14.8 101290 39
2010-04-29 06:53:10 51°15.469 2°53.929 5.9 281 14.7 101290 39
2010-04-29 06:53:16 51°15.487 2°53.907 5.8 233 14.7 101290 39
2010-04-29 06:53:20 51°15.499 2°53.892 5.3 283 14.7 101290 38
2010-04-29 06:53:26 51°15.518 2°53.869 5.3 32 14.7 101290 38
2010-04-29 06:53:31 51°15.533 2°53.85 5.4 286 14.7 101290 39
2010-04-29 06:53:36 51°15.549 2°53.831 4.8 234 14.7 101290 39
2010-04-29 06:53:40 51°15.561 2°53.816 5.4 280 14.6 101290 38
2010-04-29 06:53:46 51°15.58 2°53.794 5.7 36 14.6 101290 38
2010-04-29 06:53:51 51°15.596 2°53.775 5.2 280 14.6 101280 40
2010-04-29 06:53:56 51°15.611 2°53.756 5.4 33 14.6 101280 40
2010-04-29 06:54:00 51°15.623 2°53.741 5.4 22 14.5 101280 38
2010-04-29 06:54:05 51°15.639 2°53.722 5.2 33 14.5 101280 38
2010-04-29 06:54:11 51°15.657 2°53.7 5.7 286 14.5 101280 38
2010-04-29 06:54:16 51°15.672 2°53.681 5.7 32 14.5 101280 38
2010-04-29 06:54:20 51°15.685 2°53.665 6.3 279 14.5 101280 38
2010-04-29 06:54:26 51°15.703 2°53.643 5.8 33 14.5 101280 38
2010-04-29 06:54:31 51°15.719 2°53.624 5.9 284 14.4 101280 40
2010-04-29 06:54:36 51°15.735 2°53.606 5.8 33 14.4 101280 40
2010-04-29 06:54:40 51°15.747 2°53.591 6.7 282 14.4 101290 38
2010-04-29 06:54:46 51°15.766 2°53.568 7.1 234 14.4 101290 38
2010-04-29 06:54:50 51°15.778 2°53.553 6.2 282 14.4 101290 40
2010-04-29 06:54:56 51°15.797 2°53.531 6.6 33 14.3 101290 40
2010-04-29 06:55:01 51°15.812 2°53.513 6.6 26 14.3 101290 40
2010-04-29 06:55:06 51°15.828 2°53.494 6.4 35 14.3 101290 40
2010-04-29 06:55:10 51°15.84 2°53.479 6.9 284 14.3 101290 38
2010-04-29 06:55:16 51°15.859 2°53.457 6.7 33 14.3 101290 38
2010-04-29 06:55:20 51°15.871 2°53.442 6.4 278 14.3 101290 39
2010-04-29 06:55:26 51°15.89 2°53.419 6.7 234 14.3 101290 39
2010-04-29 06:55:31 51°15.906 2°53.399 6.2 278 14.2 101290 40
2010-04-29 06:55:36 51°15.922 2°53.381 6.6 233 14.2 101290 40
2010-04-29 06:55:40 51°15.935 2°53.366 5.8 285 14.2 101290 40
2010-04-29 06:55:46 51°15.955 2°53.347 6.1 34 14.2 101290 40
2010-04-29 06:55:51 51°15.971 2°53.33 5.1 279 14.1 101290 40
2010-04-29 06:55:56 51°15.988 2°53.316 5.2 33 14.1 101290 40
2010-04-29 06:56:00 51°16.001 2°53.305 5.2 22 14.1 101290 40
2010-04-29 06:56:06 51°16.022 2°53.29 4.7 31 14.1 101290 40
2010-04-29 06:56:11 51°16.039 2°53.277 4.2 283 14.1 101290 39
2010-04-29 06:56:16 51°16.056 2°53.265 4.2 234 14.1 101290 39
2010-04-29 06:56:20 51°16.07 2°53.255 3.6 283 14 101290 40
2010-04-29 06:56:26 51°16.091 2°53.242 3.9 240 14 101290 40
2010-04-29 06:56:31 51°16.108 2°53.23 3.6 282 14 101290 41
2010-04-29 06:56:36 51°16.126 2°53.22 3.6 31 14 101290 41
2010-04-29 06:56:40 51°16.14 2°53.211 3.6 282 14 101290 39
2010-04-29 06:56:46 51°16.161 2°53.198 3.7 34 14 101290 39
2010-04-29 06:56:51 51°16.179 2°53.187 3.4 280 14 101290 39
2010-04-29 06:56:56 51°16.196 2°53.176 3.7 31 14 101290 39
2010-04-29 06:57:00 51°16.211 2°53.166 3.6 19 13.9 101290 39
2010-04-29 06:57:05 51°16.227 2°53.155 3.6 238 13.9 101290 39
2010-04-29 06:57:11 51°16.248 2°53.141 3.3 282 13.9 101290 40
2010-04-29 06:57:16 51°16.266 2°53.13 3.4 238 13.9 101290 40
2010-04-29 06:57:21 51°16.283 2°53.118 3.5 280 13.9 101290 40
2010-04-29 06:57:26 51°16.3 2°53.107 3.4 33 13.9 101290 40
2010-04-29 06:57:30 51°16.314 2°53.098 3.6 283 13.9 101290 39
2010-04-29 06:57:36 51°16.335 2°53.084 3.3 235 13.9 101290 39
2010-04-29 06:57:41 51°16.352 2°53.072 3.4 280 13.8 101290 39
2010-04-29 06:57:46 51°16.37 2°53.061 3.5 34 13.8 101290 39
2010-04-29 06:57:51 51°16.387 2°53.049 3.9 279 13.8 101280 38
2010-04-29 06:57:56 51°16.405 2°53.037 3.8 33 13.8 101280 38
2010-04-29 06:58:01 51°16.422 2°53.026 3.5 20 13.8 101290 40
2010-04-29 06:58:06 51°16.439 2°53.014 4.2 31 13.8 101290 40
2010-04-29 06:58:11 51°16.456 2°53.002 4.4 277 13.8 101290 41
2010-04-29 06:58:16 51°16.473 2°52.99 3.8 235 13.8 101290 41
2010-04-29 06:58:20 51°16.487 2°52.98 4.1 283 13.8 101290 39
2010-04-29 06:58:26 51°16.508 2°52.966 4.1 231 13.8 101290 39
2010-04-29 06:58:31 51°16.525 2°52.955 4.3 280 13.8 101290 40
2010-04-29 06:58:36 51°16.542 2°52.944 4.2 30 13.8 101290 40
2010-04-29 06:58:40 51°16.556 2°52.935 4.1 284 13.8 101290 39
2010-04-29 06:58:46 51°16.577 2°52.922 4.1 34 13.8 101290 39
2010-04-29 06:58:51 51°16.595 2°52.912 4.1 278 13.7 101290 41
2010-04-29 06:58:56 51°16.612 2°52.901 4.3 33 13.7 101290 41
2010-04-29 06:59:00 51°16.626 2°52.893 4.6 21 13.7 101290 39
2010-04-29 06:59:05 51°16.643 2°52.882 4.1 38 13.7 101290 39
2010-04-29 06:59:10 51°16.661 2°52.872 4.1 284 13.7 101290 39
2010-04-29 06:59:16 51°16.682 2°52.859 4.2 36 13.7 101290 39
2010-04-29 06:59:20 51°16.696 2°52.851 4.3 278 13.7 101290 41
2010-04-29 06:59:26 51°16.717 2°52.839 4.3 233 13.7 101290 41
2010-04-29 06:59:30 51°16.73 2°52.83 4.5 283 13.7 101290 40
2010-04-29 06:59:36 51°16.751 2°52.817 4.6 234 13.6 101290 40
2010-04-29 06:59:40 51°16.764 2°52.809 4 283 13.6 101290 40
2010-04-29 06:59:46 51°16.784 2°52.797 4 234 13.6 101290 40
2010-04-29 06:59:51 51°16.8 2°52.786 4.1 278 13.6 101290 41
2010-04-29 06:59:56 51°16.817 2°52.775 4.2 233 13.6 101290 41
2010-04-29 07:00:01 51°16.833 2°52.765 4.1 27 13.6 101290 40
2010-04-29 07:00:06 51°16.849 2°52.754 4 35 13.6 101290 40
2010-04-29 07:00:11 51°16.865 2°52.743 4.1 285 13.6 101290 39
2010-04-29 07:00:16 51°16.881 2°52.732 3.9 34 13.6 101290 39
2010-04-29 07:00:20 51°16.894 2°52.722 3.7 283 13.6 101290 39
2010-04-29 07:00:26 51°16.913 2°52.709 4 235 13.6 101290 39
2010-04-29 07:00:31 51°16.929 2°52.697 3.6 283 13.5 101290 40
2010-04-29 07:00:36 51°16.945 2°52.686 3.4 233 13.5 101290 40
2010-04-29 07:00:40 51°16.958 2°52.677 3.9 278 13.5 101290 40
2010-04-29 07:00:46 51°16.978 2°52.663 3.5 32 13.5 101290 40
2010-04-29 07:00:51 51°16.995 2°52.652 3.3 285 13.5 101290 39
2010-04-29 07:00:56 51°17.011 2°52.641 3.3 38 13.5 101290 39
2010-04-29 07:01:00 51°17.025 2°52.633 2.9 19 13.5 101290 39
2010-04-29 07:01:05 51°17.041 2°52.622 3.1 37 13.5 101290 39
2010-04-29 07:01:11 51°17.062 2°52.612 3.4 280 13.5 101280 39
2010-04-29 07:01:16 51°17.079 2°52.603 2.6 232 13.5 101280 39
2010-04-29 07:01:20 51°17.092 2°52.597 2.8 281 13.5 101290 41
2010-04-29 07:01:25 51°17.109 2°52.589 2.5 30 13.5 101290 41
2010-04-29 07:01:31 51°17.129 2°52.582 2.7 284 13.5 101280 39
2010-04-29 07:01:36 51°17.146 2°52.575 2.4 38 13.5 101280 39
2010-04-29 07:01:40 51°17.16 2°52.57 2.5 283 13.4 101280 41
2010-04-29 07:01:45 51°17.177 2°52.564 2.6 232 13.4 101280 41
2010-04-29 07:01:51 51°17.197 2°52.556 2.8 278 13.4 101280 39
2010-04-29 07:01:56 51°17.214 2°52.55 2.9 33 13.4 101280 39
2010-04-29 07:02:00 51°17.228 2°52.544 2.9 22 13.4 101280 39
2010-04-29 07:02:06 51°17.249 2°52.535 2.9 39 13.4 101280 39
2010-04-29 07:02:11 51°17.266 2°52.528 3.3 277 13.4 101280 41
2010-04-29 07:02:16 51°17.283 2°52.52 3.1 33 13.4 101280 41
2010-04-29 07:02:20 51°17.297 2°52.513 3.4 281 13.4 101280 39
2010-04-29 07:02:26 51°17.317 2°52.502 3.5 33 13.4 101280 39
2010-04-29 07:02:31 51°17.334 2°52.493 3.5 284 13.4 101280 41
2010-04-29 07:02:36 51°17.351 2°52.484 3.5 37 13.4 101280 41
2010-04-29 07:02:40 51°17.365 2°52.478 3.7 284 13.4 101280 40
2010-04-29 07:02:46 51°17.385 2°52.467 3.3 231 13.4 101280 40
2010-04-29 07:02:51 51°17.403 2°52.459 3.2 280 13.4 101280 39
2010-04-29 07:02:56 51°17.42 2°52.453 3.1 34 13.4 101280 39
2010-04-29 07:03:00 51°17.434 2°52.447 3.5 29 13.4 101280 40
2010-04-29 07:03:05 51°17.451 2°52.442 3 231 13.4 101280 40
2010-04-29 07:03:11 51°17.472 2°52.435 3 279 13.4 101280 38
2010-04-29 07:03:16 51°17.49 2°52.43 2.9 33 13.4 101280 38
2010-04-29 07:03:20 51°17.504 2°52.426 3.2 284 13.4 101290 39
2010-04-29 07:03:26 51°17.525 2°52.42 3 33 13.4 101290 39
2010-04-29 07:03:31 51°17.543 2°52.415 2.8 279 13.4 101280 41
2010-04-29 07:03:36 51°17.56 2°52.411 2.9 33 13.4 101280 41
2010-04-29 07:03:40 51°17.574 2°52.407 3 280 13.4 101280 39
2010-04-29 07:03:45 51°17.592 2°52.402 3 38 13.4 101280 39
2010-04-29 07:03:51 51°17.613 2°52.396 3 278 13.3 101280 39
2010-04-29 07:03:56 51°17.631 2°52.391 3.1 31 13.3 101280 39
2010-04-29 07:04:00 51°17.645 2°52.387 3 27 13.3 101280 39
2010-04-29 07:04:06 51°17.665 2°52.38 3 32 13.3 101280 39
2010-04-29 07:04:11 51°17.683 2°52.375 2.8 283 13.3 101280 39
2010-04-29 07:04:16 51°17.7 2°52.369 2.8 232 13.3 101280 39
2010-04-29 07:04:20 51°17.714 2°52.365 2.8 278 13.3 101280 39
2010-04-29 07:04:26 51°17.735 2°52.359 2.6 230 13.3 101280 39
2010-04-29 07:04:31 51°17.752 2°52.353 2.7 279 13.3 101280 42
2010-04-29 07:04:36 51°17.77 2°52.347 2.4 37 13.3 101280 42
2010-04-29 07:04:40 51°17.784 2°52.344 2.7 284 13.3 101280 39
2010-04-29 07:04:46 51°17.805 2°52.338 2.4 34 13.3 101280 39
2010-04-29 07:04:51 51°17.823 2°52.333 2.1 284 13.3 101280 39
2010-04-29 07:04:56 51°17.84 2°52.327 2.3 33 13.3 101280 39
2010-04-29 07:05:00 51°17.854 2°52.324 2.1 22 13.3 101280 39
2010-04-29 07:05:06 51°17.876 2°52.317 2.4 232 13.3 101280 39
2010-04-29 07:05:11 51°17.893 2°52.312 2.3 284 13.3 101280 39
2010-04-29 07:05:16 51°17.91 2°52.306 2.6 232 13.3 101280 39
2010-04-29 07:05:20 51°17.924 2°52.302 2.4 285 13.3 101280 42
2010-04-29 07:05:26 51°17.946 2°52.295 2.5 34 13.3 101280 42
2010-04-29 07:05:31 51°17.963 2°52.29 2.6 277 13.3 101270 40
2010-04-29 07:05:36 51°17.981 2°52.283 2.4 33 13.3 101270 40
2010-04-29 07:05:40 51°17.995 2°52.279 2.8 283 13.3 101270 40
2010-04-29 07:05:45 51°18.012 2°52.272 2.5 32 13.3 101270 40
2010-04-29 07:05:51 51°18.034 2°52.266 2.7 284 13.2 101280 41
2010-04-29 07:05:56 51°18.051 2°52.259 2.5 34 13.3 101270 42
2010-04-29 07:06:00 51°18.066 2°52.254 2.8 -999 13.3 101270 42
2010-04-29 07:06:06 51°18.087 2°52.247 2.8 32 13.3 101270 42
2010-04-29 07:06:11 51°18.105 2°52.241 2.8 283 13.2 101270 41
2010-04-29 07:06:16 51°18.123 2°52.235 2.6 232 13.2 101270 41
2010-04-29 07:06:20 51°18.137 2°52.23 2.7 280 13.2 101270 42
2010-04-29 07:06:26 51°18.159 2°52.223 2.8 35 13.2 101270 42
2010-04-29 07:06:31 51°18.176 2°52.217 3 280 13.2 101270 40
2010-04-29 07:06:36 51°18.193 2°52.211 3.1 34 13.2 101270 40
2010-04-29 07:06:41 51°18.211 2°52.205 3.2 285 13.2 101270 40
2010-04-29 07:06:46 51°18.229 2°52.199 3.3 32 13.2 101270 40
2010-04-29 07:06:50 51°18.243 2°52.195 3.2 279 13.2 101280 41
2010-04-29 07:06:56 51°18.265 2°52.188 3.1 31 13.2 101280 41
2010-04-29 07:07:00 51°18.279 2°52.183 2.9 25 13.2 101280 40
2010-04-29 07:07:06 51°18.3 2°52.176 3.2 33 13.2 101280 40
2010-04-29 07:07:11 51°18.318 2°52.17 3.1 283 13.2 101270 41
2010-04-29 07:07:16 51°18.336 2°52.164 3 36 13.2 101270 41
2010-04-29 07:07:20 51°18.351 2°52.159 3.3 284 13.2 101280 39
2010-04-29 07:07:26 51°18.372 2°52.152 3.1 32 13.2 101280 40
2010-04-29 07:07:31 51°18.39 2°52.146 3 280 13.2 101280 40
2010-04-29 07:07:36 51°18.408 2°52.14 3.3 31 13.2 101280 40
2010-04-29 07:07:40 51°18.422 2°52.136 3.4 279 13.2 101280 39
2010-04-29 07:07:45 51°18.44 2°52.13 3.2 37 13.2 101280 39
2010-04-29 07:07:51 51°18.461 2°52.123 3.1 287 13.2 101280 39
2010-04-29 07:07:56 51°18.479 2°52.117 2.9 31 13.2 101280 39
2010-04-29 07:08:00 51°18.494 2°52.113 3.1 27 13.2 101280 39
2010-04-29 07:08:05 51°18.511 2°52.107 3 33 13.2 101280 39
2010-04-29 07:08:11 51°18.533 2°52.099 3.3 286 13.2 101280 39
2010-04-29 07:08:16 51°18.551 2°52.093 3 32 13.2 101280 39
2010-04-29 07:08:20 51°18.565 2°52.088 3.2 285 13.1 101280 40
2010-04-29 07:08:25 51°18.583 2°52.082 2.9 233 13.1 101280 40
2010-04-29 07:08:31 51°18.605 2°52.074 3.1 284 13.1 101270 39
2010-04-29 07:08:36 51°18.623 2°52.068 3.3 37 13.1 101270 39
2010-04-29 07:08:40 51°18.637 2°52.063 2.8 282 13.1 101270 39
2010-04-29 07:08:46 51°18.658 2°52.055 3.2 35 13.1 101270 39
2010-04-29 07:08:51 51°18.677 2°52.048 2.9 283 13.1 101280 42
2010-04-29 07:08:56 51°18.694 2°52.042 3.3 233 13.1 101280 42
2010-04-29 07:09:00 51°18.709 2°52.036 3.3 20 13.1 101280 40
2010-04-29 07:09:05 51°18.727 2°52.03 3.1 233 13.1 101280 40
2010-04-29 07:09:11 51°18.748 2°52.022 3.1 283 13.1 101270 42
2010-04-29 07:09:16 51°18.766 2°52.016 2.9 234 13.1 101270 42
2010-04-29 07:09:20 51°18.781 2°52.011 2.9 282 13.1 101280 39
2010-04-29 07:09:26 51°18.802 2°52.002 3.2 33 13.1 101280 39
2010-04-29 07:09:31 51°18.82 2°51.996 3 277 13.1 101270 41
2010-04-29 07:09:36 51°18.838 2°51.989 3 35 13.1 101270 41
2010-04-29 07:09:40 51°18.852 2°51.984 3 283 13.1 101280 41
2010-04-29 07:09:45 51°18.87 2°51.977 3 234 13.1 101280 41
2010-04-29 07:09:51 51°18.892 2°51.969 2.9 283 13.1 101270 40
2010-04-29 07:09:56 51°18.91 2°51.963 3.1 36 13.1 101270 40
2010-04-29 07:10:00 51°18.924 2°51.957 3.2 23 13.1 101270 41
2010-04-29 07:10:05 51°18.942 2°51.951 2.8 232 13.1 101270 41
2010-04-29 07:10:11 51°18.963 2°51.943 3.2 286 13.1 101270 42
2010-04-29 07:10:16 51°18.981 2°51.936 3.5 33 13.1 101270 42
2010-04-29 07:10:20 51°18.996 2°51.931 3 279 13.1 101280 40
2010-04-29 07:10:25 51°19.014 2°51.924 3 34 13.1 101280 40
2010-04-29 07:10:31 51°19.035 2°51.916 3.3 283 13.1 101270 39
2010-04-29 07:10:36 51°19.053 2°51.909 3.1 232 13.1 101270 39
2010-04-29 07:10:40 51°19.067 2°51.904 3.1 277 13 101270 41
2010-04-29 07:10:46 51°19.088 2°51.896 3.5 31 13 101270 41
2010-04-29 07:10:51 51°19.106 2°51.888 3.5 285 13 101270 42
2010-04-29 07:10:56 51°19.124 2°51.881 3.2 32 13 101270 42
2010-04-29 07:11:01 51°19.142 2°51.874 3.5 27 13 101270 41
2010-04-29 07:11:06 51°19.159 2°51.867 3.4 40 13 101270 41
2010-04-29 07:11:11 51°19.177 2°51.859 3.3 284 13 101270 38
2010-04-29 07:11:16 51°19.195 2°51.852 3.4 32 13 101270 38
2010-04-29 07:11:20 51°19.209 2°51.847 3.2 285 13 101270 40
2010-04-29 07:11:26 51°19.23 2°51.839 3.2 34 13 101270 40
2010-04-29 07:11:31 51°19.248 2°51.832 3.4 279 13 101270 42
2010-04-29 07:11:36 51°19.266 2°51.825 3.5 233 13 101270 42
2010-04-29 07:11:40 51°19.28 2°51.82 3.4 285 13 101270 40
2010-04-29 07:11:46 51°19.302 2°51.811 3.5 35 13 101270 40
2010-04-29 07:11:51 51°19.32 2°51.805 3.3 284 13 101270 41
2010-04-29 07:11:56 51°19.337 2°51.798 3.2 39 13 101270 41
2010-04-29 07:12:00 51°19.351 2°51.792 3.7 29 13 101270 39
2010-04-29 07:12:05 51°19.369 2°51.785 3.5 233 13 101270 39
2010-04-29 07:12:11 51°19.391 2°51.777 3.4 283 13 101270 41
2010-04-29 07:12:16 51°19.408 2°51.769 3.4 34 13 101270 41
2010-04-29 07:12:20 51°19.422 2°51.763 3.7 278 13 101270 42
2010-04-29 07:12:25 51°19.44 2°51.756 3.5 31 13 101270 42
2010-04-29 07:12:30 51°19.458 2°51.749 3.5 280 13 101270 42
2010-04-29 07:12:36 51°19.479 2°51.74 3.7 37 13 101270 39
2010-04-29 07:12:40 51°19.494 2°51.734 3.8 280 13 101270 39
2010-04-29 07:12:45 51°19.511 2°51.727 3.5 35 13 101270 39
2010-04-29 07:12:51 51°19.533 2°51.718 3.2 279 13 101270 39
2010-04-29 07:12:56 51°19.55 2°51.711 3.7 37 13 101270 39
2010-04-29 07:13:00 51°19.564 2°51.705 3.6 24 13 101270 42
2010-04-29 07:13:05 51°19.582 2°51.697 3.2 32 13 101270 42
2010-04-29 07:13:11 51°19.603 2°51.689 3.6 279 13 101270 42
2010-04-29 07:13:16 51°19.621 2°51.681 3.3 33 13 101270 42
2010-04-29 07:13:21 51°19.638 2°51.674 3.3 280 13 101270 40
2010-04-29 07:13:26 51°19.656 2°51.667 3.3 32 13 101270 40
2010-04-29 07:13:30 51°19.67 2°51.662 3.2 284 13 101270 41
2010-04-29 07:13:36 51°19.691 2°51.653 3.3 34 13 101270 41
2010-04-29 07:13:41 51°19.709 2°51.646 3.8 284 13 101270 42
2010-04-29 07:13:46 51°19.726 2°51.639 2.9 32 13 101270 42
2010-04-29 07:13:51 51°19.744 2°51.634 3.4 284 12.9 101260 41
2010-04-29 07:13:56 51°19.762 2°51.629 2.7 34 12.9 101260 41
2010-04-29 07:14:00 51°19.776 2°51.625 2.8 23 12.9 101270 42
2010-04-29 07:14:06 51°19.797 2°51.62 2.9 34 12.9 101270 42
2010-04-29 07:14:11 51°19.815 2°51.616 3.5 286 13 101260 42
2010-04-29 07:14:16 51°19.833 2°51.612 3 34 13 101260 42
2010-04-29 07:14:20 51°19.847 2°51.609 3.3 284 12.9 101260 40
2010-04-29 07:14:26 51°19.869 2°51.604 3 32 12.9 101260 40
2010-04-29 07:14:31 51°19.886 2°51.6 3.1 280 12.9 101260 40
2010-04-29 07:14:36 51°19.904 2°51.596 3.1 34 12.9 101260 40
2010-04-29 07:14:40 51°19.918 2°51.593 3 281 12.9 101260 40
2010-04-29 07:14:46 51°19.939 2°51.588 3.2 37 12.9 101260 40
2010-04-29 07:14:51 51°19.957 2°51.585 1.9 283 13 101260 42
2010-04-29 07:14:56 51°19.975 2°51.581 3 34 13 101260 42
2010-04-29 07:15:00 51°19.989 2°51.578 2.9 23 12.9 101260 42
2010-04-29 07:15:05 51°20.007 2°51.574 2.9 38 12.9 101260 42
2010-04-29 07:15:10 51°20.025 2°51.57 3 284 13 101260 42
2010-04-29 07:15:16 51°20.046 2°51.566 2.7 32 13 101260 42
2010-04-29 07:15:21 51°20.064 2°51.562 2.8 285 13 101260 42
2010-04-29 07:15:26 51°20.081 2°51.558 2.8 34 13 101260 42
2010-04-29 07:15:30 51°20.095 2°51.555 2.7 286 13 101260 41
2010-04-29 07:15:36 51°20.117 2°51.551 2.5 39 13 101260 41
2010-04-29 07:15:40 51°20.131 2°51.547 2.6 284 13 101260 39
2010-04-29 07:15:46 51°20.152 2°51.543 2.6 38 13 101260 39
2010-04-29 07:15:51 51°20.17 2°51.539 2.7 285 13 101260 39
2010-04-29 07:15:56 51°20.188 2°51.535 2.3 38 13 101260 39
2010-04-29 07:16:00 51°20.202 2°51.532 2.4 26 13 101260 42
2010-04-29 07:16:06 51°20.224 2°51.527 2.4 38 13 101260 42
2010-04-29 07:16:11 51°20.241 2°51.523 2.7 281 13 101260 40
2010-04-29 07:16:16 51°20.259 2°51.519 2.5 39 13 101260 40
2010-04-29 07:16:20 51°20.274 2°51.516 2.6 277 13 101260 42
2010-04-29 07:16:26 51°20.295 2°51.511 2.5 33 13 101260 39
2010-04-29 07:16:31 51°20.313 2°51.507 2.7 285 13 101260 39
2010-04-29 07:16:36 51°20.332 2°51.503 2.3 34 13 101260 39
2010-04-29 07:16:40 51°20.346 2°51.5 2.6 283 13 101260 40
2010-04-29 07:16:45 51°20.364 2°51.496 2.6 40 13 101260 40
2010-04-29 07:16:51 51°20.386 2°51.492 2.5 279 13 101260 40
2010-04-29 07:16:56 51°20.404 2°51.488 2.3 34 13 101260 40
2010-04-29 07:17:00 51°20.419 2°51.485 2.5 316 13 101250 42
2010-04-29 07:17:05 51°20.437 2°51.481 2.4 39 13 101250 42
2010-04-29 07:17:11 51°20.459 2°51.477 2.3 285 13 101250 42
2010-04-29 07:17:16 51°20.477 2°51.472 2.7 31 13 101250 42
2010-04-29 07:17:20 51°20.491 2°51.469 2.3 285 13 101250 42
2010-04-29 07:17:26 51°20.513 2°51.464 2.7 34 13 101250 42
2010-04-29 07:17:31 51°20.531 2°51.46 2.5 284 13 101250 42
2010-04-29 07:17:36 51°20.549 2°51.456 2.6 40 13 101250 40
2010-04-29 07:17:40 51°20.563 2°51.453 2.9 278 13 101250 40
2010-04-29 07:17:46 51°20.585 2°51.448 2.5 36 13 101250 40
2010-04-29 07:17:51 51°20.603 2°51.444 2.4 280 13 101260 40
2010-04-29 07:17:56 51°20.622 2°51.44 2.7 40 13 101260 40
2010-04-29 07:18:00 51°20.636 2°51.437 2.9 27 13 101250 40
2010-04-29 07:18:05 51°20.654 2°51.433 2.9 37 13 101250 40
2010-04-29 07:18:11 51°20.676 2°51.428 2.7 277 13 101250 42
2010-04-29 07:18:16 51°20.694 2°51.424 2.4 33 13 101250 42
2010-04-29 07:18:20 51°20.709 2°51.42 2.7 284 13 101250 42
2010-04-29 07:18:26 51°20.731 2°51.415 2.4 38 13 101250 42
2010-04-29 07:18:31 51°20.749 2°51.41 2.8 285 13 101250 40
2010-04-29 07:18:36 51°20.767 2°51.406 2.5 32 13 101250 40
2010-04-29 07:18:40 51°20.782 2°51.402 2.4 280 13 101250 41
2010-04-29 07:18:46 51°20.804 2°51.397 2.4 30 13 101250 41
2010-04-29 07:18:51 51°20.822 2°51.392 2.4 280 13 101250 42
2010-04-29 07:18:56 51°20.84 2°51.387 2.5 32 13 101250 42
2010-04-29 07:19:00 51°20.855 2°51.384 2.7 27 13.1 101250 40
2010-04-29 07:19:05 51°20.873 2°51.38 2.3 40 13.1 101250 40
2010-04-29 07:19:11 51°20.895 2°51.375 2.7 283 13 101250 41
2010-04-29 07:19:16 51°20.913 2°51.37 2.4 40 13 101250 40
2010-04-29 07:19:20 51°20.928 2°51.367 2.6 284 13 101250 40
2010-04-29 07:19:26 51°20.95 2°51.361 2.4 231 13 101250 40
2010-04-29 07:19:30 51°20.965 2°51.358 2.4 280 13.1 101250 40
2010-04-29 07:19:36 51°20.986 2°51.352 2.6 37 13.1 101250 40
2010-04-29 07:19:40 51°21.001 2°51.349 2.6 285 13 101250 42
2010-04-29 07:19:46 51°21.023 2°51.343 2.4 32 13 101250 42
2010-04-29 07:19:51 51°21.041 2°51.339 2.6 278 13.1 101250 41
2010-04-29 07:19:56 51°21.06 2°51.335 2.8 37 13.1 101250 41
2010-04-29 07:20:01 51°21.078 2°51.33 2.6 25 13.1 101250 42
2010-04-29 07:20:06 51°21.096 2°51.326 2.9 34 13.1 101250 42
2010-04-29 07:20:11 51°21.115 2°51.321 2.7 284 13.1 101250 40
2010-04-29 07:20:16 51°21.133 2°51.317 3 38 13.1 101250 40
2010-04-29 07:20:20 51°21.148 2°51.313 2.8 282 13.1 101250 40
2010-04-29 07:20:26 51°21.17 2°51.308 2.8 34 13.1 101250 40
2010-04-29 07:20:31 51°21.188 2°51.304 2.9 283 13.1 101250 42
2010-04-29 07:20:36 51°21.206 2°51.299 2.8 35 13.1 101250 42
2010-04-29 07:20:40 51°21.221 2°51.296 2.9 280 13.1 101250 40
2010-04-29 07:20:46 51°21.243 2°51.29 2.9 38 13.1 101250 40
2010-04-29 07:20:51 51°21.262 2°51.286 3 283 13.1 101250 40
2010-04-29 07:20:56 51°21.28 2°51.281 3 37 13.1 101250 40
2010-04-29 07:21:00 51°21.295 2°51.278 2.9 25 13.1 101250 42
2010-04-29 07:21:05 51°21.313 2°51.273 3.1 34 13.1 101250 42
2010-04-29 07:21:11 51°21.335 2°51.267 2.9 278 13.1 101250 39
2010-04-29 07:21:16 51°21.354 2°51.263 2.8 37 13.1 101250 39
2010-04-29 07:21:20 51°21.369 2°51.259 3.2 284 13.1 101250 41
2010-04-29 07:21:25 51°21.387 2°51.254 3 231 13.1 101250 41
2010-04-29 07:21:31 51°21.409 2°51.248 3 279 13.1 101250 42
2010-04-29 07:21:36 51°21.428 2°51.242 3 33 13.1 101250 42
2010-04-29 07:21:40 51°21.442 2°51.238 3.2 281 13.1 101250 42
2010-04-29 07:21:45 51°21.461 2°51.232 2.8 31 13.1 101250 42
2010-04-29 07:21:51 51°21.483 2°51.224 3 283 13.1 101250 41
2010-04-29 07:21:56 51°21.501 2°51.218 3.1 34 13.1 101250 41
2010-04-29 07:22:00 51°21.516 2°51.212 3.2 26 13.1 101250 40
2010-04-29 07:22:05 51°21.534 2°51.205 2.9 34 13.1 101250 40
2010-04-29 07:22:11 51°21.556 2°51.196 3.2 279 13.1 101250 42
2010-04-29 07:22:16 51°21.575 2°51.187 3.3 31 13.1 101250 42
2010-04-29 07:22:21 51°21.593 2°51.178 3.5 279 13.1 101250 42
2010-04-29 07:22:26 51°21.61 2°51.167 3.8 38 13.1 101250 42
2010-04-29 07:22:30 51°21.624 2°51.156 4.7 278 13.1 101250 40
2010-04-29 07:22:36 51°21.642 2°51.135 4.9 233 13.1 101250 40
2010-04-29 07:22:41 51°21.655 2°51.113 6 277 13.1 101240 39
2010-04-29 07:22:46 51°21.666 2°51.089 6.6 36 13.1 101240 39
2010-04-29 07:22:51 51°21.673 2°51.061 6.7 278 13.1 101240 40
2010-04-29 07:22:56 51°21.679 2°51.032 7.2 38 13.1 101240 40
2010-04-29 07:23:00 51°21.682 2°51.008 7.3 23 13.1 101240 40
2010-04-29 07:23:05 51°21.688 2°50.978 7.6 231 13.1 101240 40
2010-04-29 07:23:11 51°21.697 2°50.943 7.3 279 13.1 101230 42
2010-04-29 07:23:16 51°21.707 2°50.915 7.5 33 13.1 101230 42
2010-04-29 07:23:20 51°21.712 2°50.89 7.1 281 13.1 101230 41
2010-04-29 07:23:26 51°21.722 2°50.855 7 40 13.1 101230 41
2010-04-29 07:23:31 51°21.73 2°50.824 7.1 283 13.1 101230 41
2010-04-29 07:23:36 51°21.738 2°50.793 7 31 13.1 101230 42
2010-04-29 07:23:40 51°21.744 2°50.769 7.3 285 13.1 101230 42
2010-04-29 07:23:46 51°21.753 2°50.732 6.9 38 13.1 101230 42
2010-04-29 07:23:50 51°21.761 2°50.709 6.9 279 13 101240 40
2010-04-29 07:23:56 51°21.772 2°50.673 7.5 38 13 101240 40
2010-04-29 07:24:01 51°21.782 2°50.644 7.2 27 13 101230 41
2010-04-29 07:24:06 51°21.792 2°50.616 7.5 35 13 101230 41
2010-04-29 07:24:11 51°21.803 2°50.589 5.3 280 13 101230 40
2010-04-29 07:24:16 51°21.817 2°50.57 4.2 235 13 101230 40
2010-04-29 07:24:20 51°21.829 2°50.558 3.3 283 13 101230 40
2010-04-29 07:24:26 51°21.848 2°50.546 2.9 236 13 101230 40
2010-04-29 07:24:31 51°21.865 2°50.541 2.4 284 13 101230 41
2010-04-29 07:24:36 51°21.882 2°50.536 2.8 37 13 101230 41
2010-04-29 07:24:40 51°21.896 2°50.532 2.3 279 13 101240 42
2010-04-29 07:24:46 51°21.918 2°50.528 2.4 33 13 101240 42
2010-04-29 07:24:51 51°21.936 2°50.524 2.7 278 13 101240 39
2010-04-29 07:24:56 51°21.954 2°50.52 2.7 33 13 101240 39
2010-04-29 07:25:00 51°21.969 2°50.516 2.4 28 13 101240 42
2010-04-29 07:25:06 51°21.991 2°50.511 2.7 36 13 101240 42
2010-04-29 07:25:11 51°22.01 2°50.505 3.1 279 13 101240 39
2010-04-29 07:25:16 51°22.028 2°50.496 3.7 31 13 101240 39
2010-04-29 07:25:20 51°22.041 2°50.486 4.4 283 13 101250 40
2010-04-29 07:25:26 51°22.062 2°50.47 3.6 236 13 101250 40
2010-04-29 07:25:31 51°22.08 2°50.464 2.6 278 13 101240 40
2010-04-29 07:25:36 51°22.097 2°50.462 1.9 32 13 101240 40
2010-04-29 07:25:40 51°22.111 2°50.463 1.4 285 13 101240 42
2010-04-29 07:25:45 51°22.127 2°50.47 1 335 13 101240 42
2010-04-29 07:25:51 51°22.145 2°50.484 1.1 348 13 101230 42
2010-04-29 07:25:56 51°22.157 2°50.5 1.1 353 13 101230 42
2010-04-29 07:26:00 51°22.165 2°50.514 2.6 356 13 101240 40
2010-04-29 07:26:05 51°22.174 2°50.535 3.6 358 13 101240 40
2010-04-29 07:26:11 51°22.181 2°50.562 3.8 356 13 101250 40
2010-04-29 07:26:16 51°22.188 2°50.585 3.7 353 13 101250 40
2010-04-29 07:26:20 51°22.193 2°50.604 3.7 358 13 101250 42
2010-04-29 07:26:26 51°22.202 2°50.631 3.1 355 13 101250 42
2010-04-29 07:26:31 51°22.211 2°50.653 3.5 356 13 101240 40
2010-04-29 07:26:36 51°22.22 2°50.676 2.9 353 13 101240 40
2010-04-29 07:26:40 51°22.228 2°50.694 3.5 353 13 101240 39
2010-04-29 07:26:46 51°22.239 2°50.721 3.8 352 13 101240 39
2010-04-29 07:26:51 51°22.248 2°50.744 3.1 353 12.9 101240 40
2010-04-29 07:26:56 51°22.257 2°50.766 3.1 355 12.9 101240 40
2010-04-29 07:27:01 51°22.267 2°50.789 3.2 352 12.9 101240 42
2010-04-29 07:27:06 51°22.276 2°50.812 3.4 356 12.9 101240 42
2010-04-29 07:27:11 51°22.284 2°50.835 3.3 356 12.9 101240 39
2010-04-29 07:27:16 51°22.293 2°50.859 3.3 354 12.9 101240 39
2010-04-29 07:27:20 51°22.301 2°50.877 3 356 12.9 101240 42
2010-04-29 07:27:26 51°22.313 2°50.903 3 351 12.9 101240 42
2010-04-29 07:27:31 51°22.323 2°50.925 2.7 353 12.8 101240 40
2010-04-29 07:27:36 51°22.334 2°50.944 2.6 351 12.8 101240 40
2010-04-29 07:27:40 51°22.344 2°50.959 1.7 351 12.9 101240 40
2010-04-29 07:27:46 51°22.361 2°50.977 1.1 341 12.9 101240 40
2010-04-29 07:27:51 51°22.375 2°50.989 0.9 278 12.8 101240 42
2010-04-29 07:27:56 51°22.391 2°51 0.2 327 12.8 101240 42
2010-04-29 07:28:01 51°22.407 2°51.006 0.2 328 12.8 101240 42
2010-04-29 07:28:06 51°22.424 2°51.01 1.1 37 12.8 101240 42
2010-04-29 07:28:11 51°22.441 2°51.012 1.5 283 12.8 101240 41
2010-04-29 07:28:16 51°22.459 2°51.009 2 232 12.8 101240 41
2010-04-29 07:28:20 51°22.473 2°51.006 2 278 12.8 101250 41
2010-04-29 07:28:26 51°22.494 2°51.003 2.4 235 12.8 101250 41
2010-04-29 07:28:31 51°22.512 2°50.997 2.6 285 12.8 101250 41
2010-04-29 07:28:36 51°22.53 2°50.994 2.3 32 12.8 101240 43
2010-04-29 07:28:40 51°22.544 2°50.989 2.5 285 12.8 101240 43
2010-04-29 07:28:45 51°22.562 2°50.986 2.5 31 12.8 101240 43
2010-04-29 07:28:51 51°22.584 2°50.981 2.6 278 12.8 101250 43
2010-04-29 07:28:56 51°22.602 2°50.977 2.9 235 12.8 101250 40
2010-04-29 07:29:00 51°22.616 2°50.972 2.7 -999 12.8 101250 40
2010-04-29 07:29:06 51°22.638 2°50.967 2.6 35 12.8 101250 40
2010-04-29 07:29:11 51°22.656 2°50.961 2.7 279 12.8 101240 41
2010-04-29 07:29:16 51°22.674 2°50.957 2.8 235 12.8 101240 41
2010-04-29 07:29:20 51°22.689 2°50.953 2.9 284 12.8 101240 42
2010-04-29 07:29:26 51°22.71 2°50.948 2.5 233 12.8 101240 42
2010-04-29 07:29:31 51°22.728 2°50.943 2.6 284 12.8 101240 40
2010-04-29 07:29:36 51°22.746 2°50.939 2.6 237 12.8 101240 40
2010-04-29 07:29:40 51°22.76 2°50.936 2 278 12.8 101250 40
2010-04-29 07:29:46 51°22.781 2°50.932 2.1 237 12.8 101250 40
2010-04-29 07:29:51 51°22.799 2°50.931 1.1 283 12.8 101240 39
2010-04-29 07:29:56 51°22.816 2°50.934 1 38 12.8 101240 39
2010-04-29 07:30:00 51°22.829 2°50.938 0.7 24 12.8 101240 40
2010-04-29 07:30:05 51°22.845 2°50.943 0.1 230 12.8 101240 40
2010-04-29 07:30:11 51°22.866 2°50.946 0.9 282 12.8 101240 43
2010-04-29 07:30:16 51°22.883 2°50.95 0.7 33 12.8 101240 43
2010-04-29 07:30:20 51°22.896 2°50.951 0.9 278 12.8 101250 41
2010-04-29 07:30:26 51°22.917 2°50.956 0.8 34 12.8 101250 41
2010-04-29 07:30:31 51°22.934 2°50.958 1.1 283 12.8 101240 40
2010-04-29 07:30:36 51°22.951 2°50.962 0.6 40 12.8 101250 40
2010-04-29 07:30:40 51°22.965 2°50.964 0.4 277 12.8 101250 40
2010-04-29 07:30:45 51°22.982 2°50.968 0.7 315 12.8 101250 40
2010-04-29 07:30:51 51°23.003 2°50.974 0.9 285 12.8 101240 40
2010-04-29 07:30:56 51°23.019 2°50.978 1.1 34 12.9 101240 41
2010-04-29 07:31:00 51°23.033 2°50.982 0.6 286 12.9 101240 41
2010-04-29 07:31:06 51°23.053 2°50.987 0.1 322 12.9 101240 41
2010-04-29 07:31:11 51°23.07 2°50.992 0.5 282 12.9 101240 40
2010-04-29 07:31:16 51°23.087 2°50.996 0.8 38 12.9 101240 40
2010-04-29 07:31:20 51°23.1 2°50.999 0.8 284 12.9 101240 40
2010-04-29 07:31:26 51°23.121 2°51.003 0.7 316 12.9 101240 40
2010-04-29 07:31:31 51°23.138 2°51.007 0.8 283 12.9 101240 41
2010-04-29 07:31:36 51°23.155 2°51.01 0.6 321 12.9 101240 41
2010-04-29 07:31:40 51°23.168 2°51.014 0.4 282 12.9 101240 41
2010-04-29 07:31:46 51°23.188 2°51.019 0.2 316 12.9 101240 41
2010-04-29 07:31:51 51°23.205 2°51.023 0.8 283 12.9 101240 43
2010-04-29 07:31:56 51°23.221 2°51.027 0.3 317 12.9 101240 43
2010-04-29 07:32:00 51°23.235 2°51.031 0.5 320 12.9 101240 41
2010-04-29 07:32:05 51°23.252 2°51.036 0.6 320 12.9 101240 41
2010-04-29 07:32:11 51°23.272 2°51.042 0.8 278 12.9 101240 41
2010-04-29 07:32:16 51°23.288 2°51.045 0.8 319 12.9 101240 41
2010-04-29 07:32:20 51°23.302 2°51.048 0.7 286 12.9 101240 43
2010-04-29 07:32:26 51°23.322 2°51.053 0.2 319 12.9 101240 43
2010-04-29 07:32:31 51°23.339 2°51.057 0.1 282 12.9 101240 40
2010-04-29 07:32:36 51°23.355 2°51.062 0.7 316 13 101240 41
2010-04-29 07:32:40 51°23.369 2°51.066 0.9 285 13 101240 41
2010-04-29 07:32:45 51°23.385 2°51.071 0.9 319 13 101240 41
2010-04-29 07:32:51 51°23.406 2°51.076 0.7 279 13 101240 41
2010-04-29 07:32:56 51°23.422 2°51.081 0.9 320 13 101240 42
2010-04-29 07:33:00 51°23.436 2°51.084 0.8 285 13 101240 42
2010-04-29 07:33:06 51°23.456 2°51.088 1 324 13 101240 42
2010-04-29 07:33:11 51°23.473 2°51.092 1.2 285 13 101230 42
2010-04-29 07:33:16 51°23.49 2°51.096 0.8 321 13 101230 42
2010-04-29 07:33:20 51°23.503 2°51.099 0.8 285 13 101240 42
2010-04-29 07:33:26 51°23.523 2°51.104 1.3 323 13 101240 42
2010-04-29 07:33:31 51°23.54 2°51.108 0.8 286 13 101240 41
2010-04-29 07:33:36 51°23.558 2°51.11 1.1 32 13 101240 41
2010-04-29 07:33:41 51°23.574 2°51.114 0.8 278 13 101240 41
2010-04-29 07:33:46 51°23.592 2°51.117 1.1 321 13 101240 41
2010-04-29 07:33:50 51°23.605 2°51.12 0.8 285 13 101230 42
2010-04-29 07:33:56 51°23.626 2°51.124 0.7 319 13 101230 42
2010-04-29 07:34:00 51°23.639 2°51.127 0.8 322 13 101230 41
2010-04-29 07:34:06 51°23.66 2°51.132 1.2 319 13 101230 41
2010-04-29 07:34:11 51°23.677 2°51.135 0.9 278 13 101230 41
2010-04-29 07:34:16 51°23.694 2°51.138 1.1 319 13 101230 41
2010-04-29 07:34:20 51°23.708 2°51.141 0.9 286 13 101240 41
2010-04-29 07:34:26 51°23.728 2°51.144 0.7 319 13 101230 41
2010-04-29 07:34:31 51°23.745 2°51.147 0.7 281 13 101230 41
2010-04-29 07:34:36 51°23.762 2°51.15 1 318 13 101230 41
2010-04-29 07:34:40 51°23.776 2°51.153 0.9 286 13 101230 41
2010-04-29 07:34:45 51°23.793 2°51.156 1.2 315 13 101230 41
2010-04-29 07:34:51 51°23.814 2°51.161 0.8 283 13 101230 41
2010-04-29 07:34:56 51°23.831 2°51.164 1.1 316 13.1 101230 42
2010-04-29 07:35:00 51°23.845 2°51.166 0.8 316 13.1 101230 42
2010-04-29 07:35:06 51°23.865 2°51.17 0.9 323 13.1 101230 42
2010-04-29 07:35:11 51°23.882 2°51.174 0.8 283 13.1 101230 40
2010-04-29 07:35:16 51°23.899 2°51.178 0.4 319 13.1 101230 40
2010-04-29 07:35:20 51°23.913 2°51.18 0.2 277 13.1 101230 42
2010-04-29 07:35:26 51°23.933 2°51.184 0.4 321 13.1 101230 42
2010-04-29 07:35:31 51°23.95 2°51.188 0.2 281 13.1 101230 41
2010-04-29 07:35:36 51°23.967 2°51.192 0.5 320 13.1 101240 41
2010-04-29 07:35:41 51°23.985 2°51.195 0.2 282 13.1 101240 41
2010-04-29 07:35:46 51°24.002 2°51.199 0.1 324 13.1 101240 41
2010-04-29 07:35:50 51°24.016 2°51.202 0.1 282 13.1 101230 41
2010-04-29 07:35:56 51°24.036 2°51.206 0.2 316 13.1 101230 41
2010-04-29 07:36:00 51°24.05 2°51.209 0.2 315 13.1 101230 41
2010-04-29 07:36:06 51°24.071 2°51.213 0.1 40 13.1 101230 41
2010-04-29 07:36:11 51°24.088 2°51.216 0.1 286 13.1 101230 43
2010-04-29 07:36:16 51°24.105 2°51.219 0.8 232 13.1 101230 43
2010-04-29 07:36:20 51°24.119 2°51.221 0.8 284 13.1 101230 41
2010-04-29 07:36:26 51°24.14 2°51.225 0.9 40 13.1 101230 41
2010-04-29 07:36:31 51°24.157 2°51.227 0.6 283 13.1 101230 41
2010-04-29 07:36:36 51°24.174 2°51.23 1 33 13.1 101230 41
2010-04-29 07:36:40 51°24.188 2°51.232 0.9 285 13.1 101230 41
2010-04-29 07:36:45 51°24.205 2°51.235 0.7 34 13.1 101230 41
2010-04-29 07:36:51 51°24.226 2°51.238 0.6 281 13.1 101240 43
2010-04-29 07:36:56 51°24.243 2°51.242 0.2 33 13.1 101240 43
2010-04-29 07:37:00 51°24.256 2°51.243 0.2 27 13.1 101230 43
2010-04-29 07:37:06 51°24.277 2°51.247 0.4 35 13.1 101230 43
2010-04-29 07:37:11 51°24.294 2°51.25 0.1 282 13.1 101230 40
2010-04-29 07:37:16 51°24.312 2°51.253 0.1 233 13.1 101230 40
2010-04-29 07:37:20 51°24.325 2°51.255 0.8 283 13.1 101240 41
2010-04-29 07:37:26 51°24.346 2°51.258 0.2 233 13.1 101240 41
2010-04-29 07:37:30 51°24.36 2°51.261 0.6 280 13.1 101230 41
2010-04-29 07:37:36 51°24.381 2°51.264 0.5 31 13.1 101240 41
2010-04-29 07:37:41 51°24.398 2°51.267 0.4 286 13.1 101240 41
2010-04-29 07:37:46 51°24.415 2°51.27 0.4 34 13.1 101240 41
2010-04-29 07:37:50 51°24.429 2°51.271 0.6 283 13.1 101230 40
2010-04-29 07:37:56 51°24.449 2°51.275 0.2 33 13.1 101230 40
2010-04-29 07:38:01 51°24.467 2°51.277 0.7 22 13.1 101240 41
2010-04-29 07:38:06 51°24.484 2°51.281 0.6 32 13.1 101240 41
2010-04-29 07:38:11 51°24.501 2°51.282 1.1 278 13.2 101230 41
2010-04-29 07:38:16 51°24.518 2°51.285 0.8 33 13.2 101230 41
2010-04-29 07:38:20 51°24.532 2°51.287 0.7 282 13.1 101240 41
2010-04-29 07:38:26 51°24.552 2°51.29 1.1 238 13.1 101240 41
2010-04-29 07:38:31 51°24.569 2°51.293 0.8 285 13.2 101240 41
2010-04-29 07:38:36 51°24.587 2°51.296 0.9 39 13.2 101240 41
2010-04-29 07:38:40 51°24.6 2°51.298 1 280 13.2 101230 40
2010-04-29 07:38:46 51°24.621 2°51.302 0.9 31 13.2 101230 40
2010-04-29 07:38:51 51°24.638 2°51.304 1 285 13.2 101230 41
2010-04-29 07:38:56 51°24.655 2°51.308 0.4 34 13.2 101230 41
2010-04-29 07:39:00 51°24.669 2°51.31 0.7 23 13.2 101230 42
2010-04-29 07:39:06 51°24.689 2°51.313 0.7 35 13.2 101230 42
2010-04-29 07:39:11 51°24.706 2°51.316 0.8 277 13.2 101240 41
2010-04-29 07:39:16 51°24.723 2°51.319 1.3 32 13.2 101240 41
2010-04-29 07:39:20 51°24.737 2°51.321 1 278 13.2 101230 40
2010-04-29 07:39:26 51°24.757 2°51.325 0.8 34 13.2 101230 40
2010-04-29 07:39:30 51°24.771 2°51.326 0.7 281 13.2 101230 42
2010-04-29 07:39:36 51°24.791 2°51.331 0.2 32 13.2 101230 42
2010-04-29 07:39:40 51°24.805 2°51.332 0.7 281 13.2 101240 43
2010-04-29 07:39:46 51°24.825 2°51.336 0.2 31 13.2 101240 43
2010-04-29 07:39:50 51°24.839 2°51.338 1 285 13.2 101240 41
2010-04-29 07:39:56 51°24.859 2°51.342 0.2 236 13.2 101240 41
2010-04-29 07:40:01 51°24.877 2°51.344 0.1 25 13.2 101240 41
2010-04-29 07:40:06 51°24.894 2°51.347 0.9 33 13.2 101240 41
2010-04-29 07:40:11 51°24.91 2°51.349 1 278 13.2 101230 42
2010-04-29 07:40:16 51°24.927 2°51.353 1 33 13.2 101230 42
2010-04-29 07:40:20 51°24.941 2°51.355 1.2 282 13.2 101230 41
2010-04-29 07:40:26 51°24.961 2°51.359 1.2 41 13.2 101230 41
2010-04-29 07:40:31 51°24.978 2°51.362 1.2 280 13.2 101230 42
2010-04-29 07:40:36 51°24.995 2°51.365 0.9 30 13.2 101230 42
2010-04-29 07:40:40 51°25.009 2°51.366 1.2 282 13.2 101230 42
2010-04-29 07:40:46 51°25.029 2°51.37 0.8 315 13.2 101230 42
2010-04-29 07:40:51 51°25.046 2°51.372 1.1 283 13.2 101230 40
2010-04-29 07:40:56 51°25.063 2°51.376 1 318 13.2 101230 40
2010-04-29 07:41:00 51°25.077 2°51.378 0.8 28 13.2 101230 39
2010-04-29 07:41:06 51°25.097 2°51.381 0.6 34 13.2 101230 39
2010-04-29 07:41:11 51°25.114 2°51.383 1.1 277 13.2 101230 41
2010-04-29 07:41:16 51°25.131 2°51.386 0.6 320 13.2 101230 41
2010-04-29 07:41:20 51°25.145 2°51.389 0.9 278 13.2 101230 42
2010-04-29 07:41:26 51°25.165 2°51.391 0.7 318 13.2 101230 42
2010-04-29 07:41:30 51°25.178 2°51.394 0.7 279 13.2 101230 39
2010-04-29 07:41:36 51°25.199 2°51.396 0.7 37 13.2 101230 39
2010-04-29 07:41:40 51°25.212 2°51.399 0.9 286 13.2 101230 40
2010-04-29 07:41:46 51°25.233 2°51.401 0.8 31 13.2 101230 40
2010-04-29 07:41:50 51°25.246 2°51.405 0.8 278 13.3 101230 41
2010-04-29 07:41:56 51°25.267 2°51.407 0.8 31 13.2 101230 40
2010-04-29 07:42:00 51°25.28 2°51.41 0.6 319 13.2 101230 40
2010-04-29 07:42:05 51°25.297 2°51.413 0.6 30 13.2 101230 40
2010-04-29 07:42:11 51°25.318 2°51.417 0.3 282 13.2 101230 41
2010-04-29 07:42:16 51°25.335 2°51.419 0.1 237 13.2 101230 41
2010-04-29 07:42:20 51°25.348 2°51.421 0.1 282 13.2 101230 41
2010-04-29 07:42:26 51°25.369 2°51.425 0.1 318 13.2 101230 41
2010-04-29 07:42:31 51°25.386 2°51.428 0.5 282 13.2 101230 41
2010-04-29 07:42:36 51°25.403 2°51.431 0.8 39 13.2 101230 41
2010-04-29 07:42:40 51°25.417 2°51.433 0.8 286 13.2 101230 41
2010-04-29 07:42:46 51°25.437 2°51.437 0.9 318 13.2 101230 41
2010-04-29 07:42:51 51°25.454 2°51.439 1.4 277 13.3 101230 41
2010-04-29 07:42:56 51°25.471 2°51.443 1.2 319 13.3 101230 41
2010-04-29 07:43:00 51°25.485 2°51.444 0.9 28 13.3 101220 41
2010-04-29 07:43:06 51°25.506 2°51.448 0.7 324 13.3 101220 41
2010-04-29 07:43:11 51°25.523 2°51.451 0.8 284 13.2 101230 40
2010-04-29 07:43:16 51°25.54 2°51.454 0.3 34 13.2 101230 40
2010-04-29 07:43:20 51°25.554 2°51.456 0.8 278 13.2 101230 42
2010-04-29 07:43:26 51°25.574 2°51.459 0.7 34 13.2 101230 42
2010-04-29 07:43:31 51°25.591 2°51.462 0.2 283 13.2 101230 41
2010-04-29 07:43:36 51°25.609 2°51.465 0.1 35 13.2 101230 41
2010-04-29 07:43:40 51°25.623 2°51.467 0.1 277 13.2 101230 41
2010-04-29 07:43:45 51°25.64 2°51.47 0.5 316 13.2 101230 41
2010-04-29 07:43:51 51°25.66 2°51.473 0.7 283 13.3 101230 41
2010-04-29 07:43:56 51°25.677 2°51.477 1.1 320 13.2 101220 41
2010-04-29 07:44:00 51°25.691 2°51.479 1 23 13.2 101220 41
2010-04-29 07:44:05 51°25.708 2°51.481 0.9 317 13.2 101220 41
2010-04-29 07:44:11 51°25.729 2°51.485 1.2 284 13.3 101230 41
2010-04-29 07:44:16 51°25.747 2°51.488 0.9 317 13.3 101230 41
2010-04-29 07:44:20 51°25.761 2°51.49 1.2 282 13.2 101220 40
2010-04-29 07:44:26 51°25.781 2°51.493 1.1 35 13.2 101220 40
2010-04-29 07:44:31 51°25.798 2°51.497 0.9 283 13.2 101230 41
2010-04-29 07:44:36 51°25.816 2°51.499 1.1 318 13.3 101230 40
2010-04-29 07:44:40 51°25.83 2°51.502 0.8 284 13.3 101230 40
2010-04-29 07:44:46 51°25.851 2°51.505 0.8 317 13.3 101230 40
2010-04-29 07:44:51 51°25.868 2°51.508 0.3 281 13.2 101230 41
2010-04-29 07:44:56 51°25.885 2°51.511 0.1 36 13.2 101230 41
2010-04-29 07:45:00 51°25.899 2°51.513 0.1 287 13.2 101230 40
2010-04-29 07:45:06 51°25.92 2°51.518 1.1 318 13.2 101230 40
2010-04-29 07:45:11 51°25.938 2°51.52 1 283 13.2 101230 40
2010-04-29 07:45:16 51°25.955 2°51.524 1.1 40 13.2 101230 40
2010-04-29 07:45:20 51°25.969 2°51.527 1.2 283 13.2 101220 41
2010-04-29 07:45:26 51°25.99 2°51.531 1 35 13.2 101220 41
2010-04-29 07:45:31 51°26.007 2°51.535 0.9 283 13.3 101230 41
2010-04-29 07:45:36 51°26.025 2°51.539 1 322 13.3 101230 41
2010-04-29 07:45:40 51°26.038 2°51.543 0.7 283 13.2 101230 41
2010-04-29 07:45:45 51°26.056 2°51.547 0.8 231 13.2 101230 41
2010-04-29 07:45:51 51°26.077 2°51.551 0.5 278 13.2 101230 39
2010-04-29 07:45:56 51°26.094 2°51.555 0.9 33 13.2 101220 40
2010-04-29 07:46:00 51°26.109 2°51.558 0.5 316 13.2 101220 40
2010-04-29 07:46:05 51°26.126 2°51.562 0.1 31 13.2 101220 40
2010-04-29 07:46:11 51°26.147 2°51.567 0.1 286 13.2 101220 42
2010-04-29 07:46:16 51°26.165 2°51.57 0.1 33 13.2 101220 42
2010-04-29 07:46:20 51°26.179 2°51.573 0.1 282 13.2 101220 39
2010-04-29 07:46:26 51°26.2 2°51.578 0.1 33 13.2 101220 39
2010-04-29 07:46:31 51°26.218 2°51.582 0.3 286 13.2 101220 41
2010-04-29 07:46:36 51°26.236 2°51.585 0.2 34 13.2 101220 41
2010-04-29 07:46:40 51°26.25 2°51.588 0.7 286 13.2 101230 41
2010-04-29 07:46:45 51°26.268 2°51.591 1 32 13.2 101230 41
2010-04-29 07:46:51 51°26.288 2°51.595 1.1 283 13.2 101230 41
2010-04-29 07:46:56 51°26.306 2°51.598 0.9 33 13.2 101230 41
2010-04-29 07:47:00 51°26.32 2°51.601 0.5 -999 13.3 101230 41
2010-04-29 07:47:06 51°26.341 2°51.605 0.8 33 13.3 101230 41
2010-04-29 07:47:11 51°26.359 2°51.608 0.7 281 13.3 101220 39
2010-04-29 07:47:16 51°26.376 2°51.611 0.6 32 13.3 101220 39
2010-04-29 07:47:20 51°26.391 2°51.614 0.9 278 13.3 101230 42
2010-04-29 07:47:26 51°26.412 2°51.618 0.8 317 13.3 101230 42
2010-04-29 07:47:31 51°26.429 2°51.621 1.1 282 13.3 101230 41
2010-04-29 07:47:36 51°26.447 2°51.624 0.9 316 13.3 101230 41
2010-04-29 07:47:40 51°26.461 2°51.627 0.2 282 13.3 101230 40
2010-04-29 07:47:46 51°26.482 2°51.631 0.8 35 13.3 101220 41
2010-04-29 07:47:51 51°26.499 2°51.634 0.7 281 13.3 101220 41
2010-04-29 07:47:56 51°26.517 2°51.637 0.8 31 13.3 101220 41
2010-04-29 07:48:00 51°26.531 2°51.639 0.9 27 13.3 101230 41
2010-04-29 07:48:05 51°26.548 2°51.642 0.2 32 13.3 101230 41
2010-04-29 07:48:11 51°26.569 2°51.646 0.8 284 13.3 101230 41
2010-04-29 07:48:16 51°26.587 2°51.649 0.2 315 13.3 101230 41
2010-04-29 07:48:20 51°26.601 2°51.652 0.1 282 13.3 101220 41
2010-04-29 07:48:26 51°26.622 2°51.655 0.1 318 13.3 101220 41
2010-04-29 07:48:31 51°26.639 2°51.658 0.1 277 13.3 101220 40
2010-04-29 07:48:36 51°26.657 2°51.661 0.1 38 13.3 101220 41
2010-04-29 07:48:40 51°26.671 2°51.664 0.1 287 13.3 101220 41
2010-04-29 07:48:45 51°26.688 2°51.666 0.1 321 13.3 101220 41
2010-04-29 07:48:51 51°26.709 2°51.67 0.1 277 13.3 101230 40
2010-04-29 07:48:56 51°26.727 2°51.673 0.1 321 13.3 101220 41
2010-04-29 07:49:00 51°26.741 2°51.676 0.1 -999 13.3 101220 41
2010-04-29 07:49:05 51°26.758 2°51.679 -999 41 13.3 101220 41
2010-04-29 07:49:11 51°26.779 2°51.682 0.1 281 13.3 101220 41
2010-04-29 07:49:16 51°26.797 2°51.685 0.1 32 13.3 101220 41
2010-04-29 07:49:21 51°26.814 2°51.688 0.1 282 13.3 101220 41
2010-04-29 07:49:26 51°26.832 2°51.691 -999 320 13.3 101220 41
2010-04-29 07:49:30 51°26.846 2°51.693 0.1 282 13.3 101220 41
2010-04-29 07:49:36 51°26.867 2°51.697 0.1 320 13.3 101220 41
2010-04-29 07:49:40 51°26.881 2°51.699 0.1 282 13.3 101220 41
2010-04-29 07:49:46 51°26.902 2°51.703 0.1 317 13.3 101220 41
2010-04-29 07:49:51 51°26.919 2°51.706 0.1 282 13.3 101220 41
2010-04-29 07:49:56 51°26.937 2°51.709 0.1 321 13.3 101220 41
2010-04-29 07:50:00 51°26.951 2°51.711 0.1 323 13.3 101220 41
2010-04-29 07:50:06 51°26.971 2°51.716 -999 325 13.3 101220 41
2010-04-29 07:50:11 51°26.989 2°51.719 -999 282 13.3 101220 41
2010-04-29 07:50:16 51°27.006 2°51.723 -999 328 13.3 101220 41
2010-04-29 07:50:20 51°27.02 2°51.725 -999 282 13.3 101220 41
2010-04-29 07:50:25 51°27.037 2°51.729 -999 332 13.3 101220 41
2010-04-29 07:50:31 51°27.057 2°51.732 -999 281 13.3 101220 41
2010-04-29 07:50:36 51°27.074 2°51.736 -999 329 13.3 101220 41
2010-04-29 07:50:40 51°27.087 2°51.738 -999 281 13.3 101220 41
2010-04-29 07:50:45 51°27.104 2°51.741 -999 322 13.3 101220 41
2010-04-29 07:50:51 51°27.125 2°51.744 -999 282 13.4 101220 41
2010-04-29 07:50:56 51°27.141 2°51.748 -999 330 13.4 101220 41
2010-04-29 07:51:00 51°27.155 2°51.751 -999 329 13.4 101220 41
2010-04-29 07:51:05 51°27.172 2°51.753 -999 327 13.4 101220 41
2010-04-29 07:51:11 51°27.192 2°51.758 0.1 282 13.4 101220 40
2010-04-29 07:51:16 51°27.209 2°51.759 0.1 324 13.4 101220 40
2010-04-29 07:51:20 51°27.223 2°51.762 0.1 282 13.4 101220 41
2010-04-29 07:51:26 51°27.243 2°51.766 -999 322 13.4 101220 41
2010-04-29 07:51:31 51°27.26 2°51.77 -999 281 13.4 101220 41
2010-04-29 07:51:36 51°27.276 2°51.773 0.1 323 13.4 101220 41
2010-04-29 07:51:40 51°27.29 2°51.777 0.1 282 13.4 101210 41
2010-04-29 07:51:46 51°27.309 2°51.783 0.1 328 13.4 101210 41
2010-04-29 07:51:51 51°27.326 2°51.788 0.8 283 13.4 101220 41
2010-04-29 07:51:56 51°27.342 2°51.795 0.7 328 13.4 101220 41
2010-04-29 07:52:00 51°27.355 2°51.8 0.6 335 13.4 101220 41
2010-04-29 07:52:06 51°27.374 2°51.809 0.5 325 13.4 101220 41
2010-04-29 07:52:11 51°27.39 2°51.817 0.1 277 13.5 101220 41
2010-04-29 07:52:16 51°27.406 2°51.826 0.1 337 13.5 101220 41
2010-04-29 07:52:20 51°27.418 2°51.832 0.1 350 13.4 101220 41
2010-04-29 07:52:25 51°27.434 2°51.843 0.1 342 13.4 101220 41
2010-04-29 07:52:31 51°27.452 2°51.854 0.9 346 13.5 101220 41
2010-04-29 07:52:36 51°27.467 2°51.864 0.9 346 13.5 101220 41
2010-04-29 07:52:40 51°27.48 2°51.871 1.2 282 13.4 101220 41
2010-04-29 07:52:45 51°27.495 2°51.882 1.1 344 13.4 101220 41
2010-04-29 07:52:51 51°27.513 2°51.893 1 277 13.4 101220 41
2010-04-29 07:52:56 51°27.528 2°51.903 0.7 344 13.4 101220 41
2010-04-29 07:53:00 51°27.54 2°51.911 0.9 342 13.4 101220 40
2010-04-29 07:53:05 51°27.556 2°51.921 1.1 343 13.4 101220 40
2010-04-29 07:53:11 51°27.574 2°51.932 1.1 282 13.3 101220 41
2010-04-29 07:53:16 51°27.589 2°51.942 1.2 343 13.3 101220 41
2010-04-29 07:53:20 51°27.602 2°51.95 1.1 283 13.3 101220 41
2010-04-29 07:53:26 51°27.62 2°51.961 0.9 341 13.3 101220 41
2010-04-29 07:53:31 51°27.635 2°51.971 1.2 278 13.3 101220 41
2010-04-29 07:53:36 51°27.651 2°51.981 1.4 336 13.3 101220 41
2010-04-29 07:53:40 51°27.663 2°51.989 1.2 284 13.3 101220 40
2010-04-29 07:53:46 51°27.681 2°52.001 1.2 338 13.3 101220 40
2010-04-29 07:53:51 51°27.697 2°52.011 1.1 283 13.3 101220 40
2010-04-29 07:53:56 51°27.712 2°52.02 1.3 335 13.3 101220 40
2010-04-29 07:54:01 51°27.727 2°52.03 1.6 334 13.3 101220 40
2010-04-29 07:54:06 51°27.743 2°52.04 1.4 334 13.3 101220 40
2010-04-29 07:54:11 51°27.758 2°52.05 1.6 278 13.3 101220 39
2010-04-29 07:54:16 51°27.773 2°52.059 2 329 13.3 101220 39
2010-04-29 07:54:20 51°27.786 2°52.067 2.1 284 13.2 101220 42
2010-04-29 07:54:26 51°27.804 2°52.079 2.5 328 13.2 101220 42
2010-04-29 07:54:31 51°27.819 2°52.087 2.9 282 13.2 101220 40
2010-04-29 07:54:36 51°27.835 2°52.097 3.3 323 13.2 101220 40
2010-04-29 07:54:40 51°27.847 2°52.105 4.5 283 13.2 101220 41
2010-04-29 07:54:45 51°27.863 2°52.115 4.5 324 13.2 101220 41
2010-04-29 07:54:51 51°27.882 2°52.126 5.4 285 13.2 101220 40
2010-04-29 07:54:56 51°27.897 2°52.135 5.6 324 13.2 101220 40
2010-04-29 07:55:00 51°27.91 2°52.143 4.6 326 13.2 101220 41
2010-04-29 07:55:05 51°27.925 2°52.153 4.6 323 13.2 101220 41
2010-04-29 07:55:11 51°27.944 2°52.165 4.9 323 13.2 101220 40
2010-04-29 07:55:16 51°27.959 2°52.175 4.4 324 13.2 101220 40
2010-04-29 07:55:20 51°27.972 2°52.182 4.7 279 13.2 101220 41
2010-04-29 07:55:25 51°27.987 2°52.192 3.7 328 13.2 101220 41
2010-04-29 07:55:31 51°28.006 2°52.203 3 284 13.1 101220 40
2010-04-29 07:55:36 51°28.021 2°52.213 3.3 329 13.1 101220 40
2010-04-29 07:55:40 51°28.034 2°52.221 2.4 283 13.1 101220 40
2010-04-29 07:55:46 51°28.053 2°52.233 1.7 329 13.1 101220 40
2010-04-29 07:55:51 51°28.068 2°52.242 2.3 279 13.1 101220 42
2010-04-29 07:55:56 51°28.084 2°52.252 1.6 329 13.1 101220 42
2010-04-29 07:56:01 51°28.099 2°52.262 1.4 331 13.1 101220 40
2010-04-29 07:56:06 51°28.115 2°52.272 1.7 336 13.1 101220 40
2010-04-29 07:56:11 51°28.131 2°52.281 1.8 282 13 101220 42
2010-04-29 07:56:16 51°28.146 2°52.291 1.7 340 13 101220 42
2010-04-29 07:56:20 51°28.159 2°52.298 0.5 278 13 101220 41
2010-04-29 07:56:26 51°28.178 2°52.31 1.1 339 13 101220 41
2010-04-29 07:56:31 51°28.194 2°52.319 0.9 278 13 101220 40
2010-04-29 07:56:36 51°28.209 2°52.329 1 341 13 101220 40
2010-04-29 07:56:40 51°28.222 2°52.337 0.2 281 13 101220 41
2010-04-29 07:56:46 51°28.241 2°52.349 0.9 340 13 101220 41
2010-04-29 07:56:51 51°28.257 2°52.358 0.6 347 13 101220 41
2010-04-29 07:56:56 51°28.272 2°52.368 0.7 347 13 101220 41
2010-04-29 07:57:00 51°28.285 2°52.375 0.9 340 13 101220 41
2010-04-29 07:57:05 51°28.301 2°52.385 0.4 346 13 101220 41
2010-04-29 07:57:11 51°28.319 2°52.395 0.5 340 13 101220 41
2010-04-29 07:57:16 51°28.335 2°52.404 0.5 341 13 101220 41
2010-04-29 07:57:20 51°28.348 2°52.412 0.9 277 13 101220 41
2010-04-29 07:57:26 51°28.367 2°52.424 0.9 335 13 101220 41
2010-04-29 07:57:31 51°28.383 2°52.434 0.9 340 13 101220 41
2010-04-29 07:57:36 51°28.398 2°52.444 0.3 337 13 101220 41
2010-04-29 07:57:40 51°28.411 2°52.451 0.2 286 13 101220 40
2010-04-29 07:57:45 51°28.427 2°52.461 0.3 345 13 101220 40
2010-04-29 07:57:51 51°28.446 2°52.473 0.2 282 13 101220 40
2010-04-29 07:57:56 51°28.462 2°52.482 0.1 344 13 101220 40
2010-04-29 07:58:00 51°28.475 2°52.49 0.8 341 13 101220 41
2010-04-29 07:58:05 51°28.491 2°52.499 1.3 339 13 101220 41
2010-04-29 07:58:11 51°28.51 2°52.51 0.8 284 13 101220 41
2010-04-29 07:58:16 51°28.526 2°52.52 1.4 341 13 101220 41
2010-04-29 07:58:20 51°28.539 2°52.527 1.6 277 13 101210 41
2010-04-29 07:58:26 51°28.558 2°52.539 1.6 335 13 101210 41
2010-04-29 07:58:31 51°28.574 2°52.548 1.7 281 13 101220 41
2010-04-29 07:58:36 51°28.59 2°52.557 1.8 333 13 101220 41
2010-04-29 07:58:40 51°28.602 2°52.566 2.7 283 13 101220 41
2010-04-29 07:58:46 51°28.622 2°52.578 2.8 331 13 101220 41
2010-04-29 07:58:51 51°28.638 2°52.588 3.3 279 13 101220 42
2010-04-29 07:58:56 51°28.653 2°52.597 4.1 329 13 101220 42
2010-04-29 07:59:00 51°28.666 2°52.605 4 330 13 101220 42
2010-04-29 07:59:05 51°28.682 2°52.615 5.8 325 13 101220 42
2010-04-29 07:59:11 51°28.701 2°52.627 5.8 282 13 101220 39
2010-04-29 07:59:16 51°28.717 2°52.636 6 327 13 101220 39
2010-04-29 07:59:20 51°28.73 2°52.644 6.1 278 13 101220 40
2010-04-29 07:59:26 51°28.749 2°52.656 6.1 326 13 101220 40
2010-04-29 07:59:31 51°28.765 2°52.665 5.9 279 12.9 101220 42
2010-04-29 07:59:36 51°28.781 2°52.675 6.7 326 12.9 101220 42
2010-04-29 07:59:40 51°28.794 2°52.683 6.2 282 12.9 101210 42
2010-04-29 07:59:45 51°28.81 2°52.692 6.4 327 12.9 101210 42
2010-04-29 07:59:51 51°28.829 2°52.703 5.8 327 12.9 101210 40
2010-04-29 07:59:56 51°28.845 2°52.712 5.2 322 12.9 101210 40
2010-04-29 08:00:01 51°28.861 2°52.722 5.5 325 12.8 101210 40
2010-04-29 08:00:05 51°28.874 2°52.729 5 323 12.8 101210 40
2010-04-29 08:00:11 51°28.894 2°52.74 4 280 12.8 101210 41
2010-04-29 08:00:16 51°28.91 2°52.749 4.8 324 12.8 101210 41
2010-04-29 08:00:20 51°28.923 2°52.756 4 283 12.8 101220 41
2010-04-29 08:00:25 51°28.939 2°52.764 4.1 330 12.8 101220 41
2010-04-29 08:00:31 51°28.958 2°52.776 3.6 284 12.8 101210 41
2010-04-29 08:00:36 51°28.974 2°52.785 3.5 326 12.8 101210 41
2010-04-29 08:00:41 51°28.99 2°52.794 3.4 280 12.8 101220 41
2010-04-29 08:00:46 51°29.006 2°52.804 3 333 12.8 101220 41
2010-04-29 08:00:51 51°29.022 2°52.813 2.3 284 12.7 101220 43
2010-04-29 08:00:56 51°29.038 2°52.822 2.3 334 12.7 101220 43
2010-04-29 08:01:00 51°29.05 2°52.83 2.6 331 12.7 101220 41